sensor_id;sensor_type;location;lat;lon;timestamp;temperature;humidity
24686;DHT22;12804;51.176;4.452;2022-08-03T00:01:37;22.40;99.90
24686;DHT22;12804;51.176;4.452;2022-08-03T00:04:05;22.40;99.90
24686;DHT22;12804;51.176;4.452;2022-08-03T00:06:31;22.40;99.90
24686;DHT22;12804;51.176;4.452;2022-08-03T00:08:57;22.10;99.90
24686;DHT22;12804;51.176;4.452;2022-08-03T00:11:23;22.00;99.90
24686;DHT22;12804;51.176;4.452;2022-08-03T00:13:49;22.00;99.90
24686;DHT22;12804;51.176;4.452;2022-08-03T00:16:15;22.00;99.90
24686;DHT22;12804;51.176;4.452;2022-08-03T00:18:41;22.00;99.90
24686;DHT22;12804;51.176;4.452;2022-08-03T00:21:07;22.00;99.90
24686;DHT22;12804;51.176;4.452;2022-08-03T00:23:33;22.10;99.90
24686;DHT22;12804;51.176;4.452;2022-08-03T00:25:59;22.10;99.90
24686;DHT22;12804;51.176;4.452;2022-08-03T00:28:25;22.20;99.90
24686;DHT22;12804;51.176;4.452;2022-08-03T00:30:51;22.10;99.90
24686;DHT22;12804;51.176;4.452;2022-08-03T00:33:17;22.10;99.90
24686;DHT22;12804;51.176;4.452;2022-08-03T00:35:43;22.10;99.90
24686;DHT22;12804;51.176;4.452;2022-08-03T00:38:09;22.10;99.90
24686;DHT22;12804;51.176;4.452;2022-08-03T00:40:35;22.10;99.90
24686;DHT22;12804;51.176;4.452;2022-08-03T00:43:02;22.10;99.90
24686;DHT22;12804;51.176;4.452;2022-08-03T00:45:35;22.00;99.90
24686;DHT22;12804;51.176;4.452;2022-08-03T00:48:02;22.00;99.90
24686;DHT22;12804;51.176;4.452;2022-08-03T00:50:29;21.90;99.90
24686;DHT22;12804;51.176;4.452;2022-08-03T00:52:57;21.70;99.90
24686;DHT22;12804;51.176;4.452;2022-08-03T00:55:24;21.70;99.90
24686;DHT22;12804;51.176;4.452;2022-08-03T00:57:51;21.70;99.90
24686;DHT22;12804;51.176;4.452;2022-08-03T01:00:20;21.70;99.90
24686;DHT22;12804;51.176;4.452;2022-08-03T01:02:46;21.70;99.90
24686;DHT22;12804;51.176;4.452;2022-08-03T01:05:12;21.70;99.90
24686;DHT22;12804;51.176;4.452;2022-08-03T01:10:53;21.60;99.90
24686;DHT22;12804;51.176;4.452;2022-08-03T01:13:33;21.70;99.90
24686;DHT22;12804;51.176;4.452;2022-08-03T01:16:18;21.60;99.90
24686;DHT22;12804;51.176;4.452;2022-08-03T01:18:59;21.70;99.90
24686;DHT22;12804;51.176;4.452;2022-08-03T01:21:31;21.70;99.90
24686;DHT22;12804;51.176;4.452;2022-08-03T01:24:03;21.60;99.90
24686;DHT22;12804;51.176;4.452;2022-08-03T01:32:45;21.50;99.90
24686;DHT22;12804;51.176;4.452;2022-08-03T01:35:15;21.40;99.90
24686;DHT22;12804;51.176;4.452;2022-08-03T01:37:50;21.40;99.90
24686;DHT22;12804;51.176;4.452;2022-08-03T01:40:19;21.40;99.90
24686;DHT22;12804;51.176;4.452;2022-08-03T01:42:46;21.40;99.90
24686;DHT22;12804;51.176;4.452;2022-08-03T01:45:14;21.30;99.90
24686;DHT22;12804;51.176;4.452;2022-08-03T01:47:45;21.20;99.90
24686;DHT22;12804;51.176;4.452;2022-08-03T01:50:12;21.20;99.90
24686;DHT22;12804;51.176;4.452;2022-08-03T01:52:40;21.10;99.90
24686;DHT22;12804;51.176;4.452;2022-08-03T01:55:08;21.10;99.90
24686;DHT22;12804;51.176;4.452;2022-08-03T01:57:35;21.10;99.90
24686;DHT22;12804;51.176;4.452;2022-08-03T02:00:03;21.10;99.90
24686;DHT22;12804;51.176;4.452;2022-08-03T02:02:38;21.00;99.90
24686;DHT22;12804;51.176;4.452;2022-08-03T02:05:06;21.00;99.90
24686;DHT22;12804;51.176;4.452;2022-08-03T02:07:33;21.00;99.90
24686;DHT22;12804;51.176;4.452;2022-08-03T02:10:03;20.90;99.90
24686;DHT22;12804;51.176;4.452;2022-08-03T02:12:30;20.70;99.90
24686;DHT22;12804;51.176;4.452;2022-08-03T02:14:58;20.80;99.90
24686;DHT22;12804;51.176;4.452;2022-08-03T02:17:26;20.70;99.90
24686;DHT22;12804;51.176;4.452;2022-08-03T02:19:53;20.70;99.90
24686;DHT22;12804;51.176;4.452;2022-08-03T02:22:21;20.60;99.90
24686;DHT22;12804;51.176;4.452;2022-08-03T02:24:49;20.60;99.90
24686;DHT22;12804;51.176;4.452;2022-08-03T02:27:23;20.60;99.90
24686;DHT22;12804;51.176;4.452;2022-08-03T02:29:55;20.70;99.90
24686;DHT22;12804;51.176;4.452;2022-08-03T02:32:29;20.70;99.90
24686;DHT22;12804;51.176;4.452;2022-08-03T02:34:57;20.70;99.90
24686;DHT22;12804;51.176;4.452;2022-08-03T02:37:27;20.60;99.90
24686;DHT22;12804;51.176;4.452;2022-08-03T02:39:58;20.60;99.90
24686;DHT22;12804;51.176;4.452;2022-08-03T02:42:26;20.70;99.90
24686;DHT22;12804;51.176;4.452;2022-08-03T02:44:55;20.70;99.90
24686;DHT22;12804;51.176;4.452;2022-08-03T02:47:22;20.60;99.90
24686;DHT22;12804;51.176;4.452;2022-08-03T02:49:50;20.50;99.90
24686;DHT22;12804;51.176;4.452;2022-08-03T02:52:22;20.60;99.90
24686;DHT22;12804;51.176;4.452;2022-08-03T02:54:51;20.60;99.90
24686;DHT22;12804;51.176;4.452;2022-08-03T02:57:19;20.60;99.90
24686;DHT22;12804;51.176;4.452;2022-08-03T02:59:46;20.60;99.90
24686;DHT22;12804;51.176;4.452;2022-08-03T03:02:13;20.60;99.90
24686;DHT22;12804;51.176;4.452;2022-08-03T03:04:41;20.40;99.90
24686;DHT22;12804;51.176;4.452;2022-08-03T03:07:08;20.40;99.90
24686;DHT22;12804;51.176;4.452;2022-08-03T03:09:35;20.50;99.90
24686;DHT22;12804;51.176;4.452;2022-08-03T03:12:02;20.40;99.90
24686;DHT22;12804;51.176;4.452;2022-08-03T03:14:28;20.40;99.90
24686;DHT22;12804;51.176;4.452;2022-08-03T03:16:55;20.40;99.90
24686;DHT22;12804;51.176;4.452;2022-08-03T03:19:22;20.40;99.90
24686;DHT22;12804;51.176;4.452;2022-08-03T03:21:49;20.30;99.90
24686;DHT22;12804;51.176;4.452;2022-08-03T03:24:15;20.30;99.90
24686;DHT22;12804;51.176;4.452;2022-08-03T03:26:42;20.30;99.90
24686;DHT22;12804;51.176;4.452;2022-08-03T03:29:08;20.20;99.90
24686;DHT22;12804;51.176;4.452;2022-08-03T03:31:34;20.20;99.90
24686;DHT22;12804;51.176;4.452;2022-08-03T03:34:01;20.10;99.90
24686;DHT22;12804;51.176;4.452;2022-08-03T03:36:28;20.10;99.90
24686;DHT22;12804;51.176;4.452;2022-08-03T03:38:53;20.10;99.90
24686;DHT22;12804;51.176;4.452;2022-08-03T03:41:19;20.10;99.90
24686;DHT22;12804;51.176;4.452;2022-08-03T03:43:45;20.20;99.90
24686;DHT22;12804;51.176;4.452;2022-08-03T03:46:12;20.20;99.90
24686;DHT22;12804;51.176;4.452;2022-08-03T03:48:38;20.20;99.90
24686;DHT22;12804;51.176;4.452;2022-08-03T03:51:05;20.10;99.90
24686;DHT22;12804;51.176;4.452;2022-08-03T03:53:31;20.00;99.90
24686;DHT22;12804;51.176;4.452;2022-08-03T03:55:57;19.90;99.90
24686;DHT22;12804;51.176;4.452;2022-08-03T03:58:23;20.10;99.90
24686;DHT22;12804;51.176;4.452;2022-08-03T04:00:49;20.10;99.90
24686;DHT22;12804;51.176;4.452;2022-08-03T04:03:15;20.20;99.90
24686;DHT22;12804;51.176;4.452;2022-08-03T04:05:41;20.00;99.90
24686;DHT22;12804;51.176;4.452;2022-08-03T04:08:25;20.00;99.90
24686;DHT22;12804;51.176;4.452;2022-08-03T04:11:29;19.80;99.90
24686;DHT22;12804;51.176;4.452;2022-08-03T04:14:27;19.70;99.90
24686;DHT22;12804;51.176;4.452;2022-08-03T04:17:03;19.70;99.90
24686;DHT22;12804;51.176;4.452;2022-08-03T04:19:33;19.80;99.90
24686;DHT22;12804;51.176;4.452;2022-08-03T04:22:04;19.70;99.90
24686;DHT22;12804;51.176;4.452;2022-08-03T04:24:42;19.70;99.90
24686;DHT22;12804;51.176;4.452;2022-08-03T04:27:11;19.80;99.90
24686;DHT22;12804;51.176;4.452;2022-08-03T04:29:42;19.80;99.90
24686;DHT22;12804;51.176;4.452;2022-08-03T04:32:09;19.80;99.90
24686;DHT22;12804;51.176;4.452;2022-08-03T04:34:35;19.60;99.90
24686;DHT22;12804;51.176;4.452;2022-08-03T04:37:07;19.70;99.90
24686;DHT22;12804;51.176;4.452;2022-08-03T04:39:35;19.70;99.90
24686;DHT22;12804;51.176;4.452;2022-08-03T04:42:03;19.80;99.90
24686;DHT22;12804;51.176;4.452;2022-08-03T04:44:35;19.80;99.90
24686;DHT22;12804;51.176;4.452;2022-08-03T04:47:05;19.80;99.90
24686;DHT22;12804;51.176;4.452;2022-08-03T04:49:31;19.70;99.90
24686;DHT22;12804;51.176;4.452;2022-08-03T04:51:57;19.70;99.90
24686;DHT22;12804;51.176;4.452;2022-08-03T04:54:23;19.70;99.90
24686;DHT22;12804;51.176;4.452;2022-08-03T04:56:49;19.70;99.90
24686;DHT22;12804;51.176;4.452;2022-08-03T04:59:15;19.60;99.90
24686;DHT22;12804;51.176;4.452;2022-08-03T05:01:42;19.60;99.90
24686;DHT22;12804;51.176;4.452;2022-08-03T05:04:08;19.70;99.90
24686;DHT22;12804;51.176;4.452;2022-08-03T05:06:34;19.80;99.90
24686;DHT22;12804;51.176;4.452;2022-08-03T05:09:00;19.90;99.90
24686;DHT22;12804;51.176;4.452;2022-08-03T05:11:26;19.90;99.90
24686;DHT22;12804;51.176;4.452;2022-08-03T05:13:52;20.10;99.90
24686;DHT22;12804;51.176;4.452;2022-08-03T05:16:18;20.00;99.90
24686;DHT22;12804;51.176;4.452;2022-08-03T05:18:45;20.00;99.90
24686;DHT22;12804;51.176;4.452;2022-08-03T05:21:10;20.10;99.90
24686;DHT22;12804;51.176;4.452;2022-08-03T05:23:39;20.20;99.90
24686;DHT22;12804;51.176;4.452;2022-08-03T05:26:06;20.20;99.90
24686;DHT22;12804;51.176;4.452;2022-08-03T05:28:32;20.10;99.90
24686;DHT22;12804;51.176;4.452;2022-08-03T05:30:57;20.00;99.90
24686;DHT22;12804;51.176;4.452;2022-08-03T05:33:23;20.00;99.90
24686;DHT22;12804;51.176;4.452;2022-08-03T05:35:49;20.00;99.90
24686;DHT22;12804;51.176;4.452;2022-08-03T05:38:15;20.10;99.90
24686;DHT22;12804;51.176;4.452;2022-08-03T05:40:41;20.20;99.90
24686;DHT22;12804;51.176;4.452;2022-08-03T05:43:06;20.40;99.90
24686;DHT22;12804;51.176;4.452;2022-08-03T05:45:33;20.30;99.90
24686;DHT22;12804;51.176;4.452;2022-08-03T05:47:59;20.40;99.90
24686;DHT22;12804;51.176;4.452;2022-08-03T05:50:24;20.50;99.90
24686;DHT22;12804;51.176;4.452;2022-08-03T05:52:53;20.50;99.90
24686;DHT22;12804;51.176;4.452;2022-08-03T05:55:19;20.60;99.90
24686;DHT22;12804;51.176;4.452;2022-08-03T05:57:46;20.70;99.90
24686;DHT22;12804;51.176;4.452;2022-08-03T06:00:12;20.70;99.90
24686;DHT22;12804;51.176;4.452;2022-08-03T06:02:39;20.70;99.90
24686;DHT22;12804;51.176;4.452;2022-08-03T06:05:05;20.70;99.90
24686;DHT22;12804;51.176;4.452;2022-08-03T06:07:32;20.90;99.90
24686;DHT22;12804;51.176;4.452;2022-08-03T06:09:58;20.90;99.90
24686;DHT22;12804;51.176;4.452;2022-08-03T06:12:25;20.90;99.90
24686;DHT22;12804;51.176;4.452;2022-08-03T06:14:50;21.10;99.90
24686;DHT22;12804;51.176;4.452;2022-08-03T06:17:16;21.10;99.90
24686;DHT22;12804;51.176;4.452;2022-08-03T06:19:42;21.20;99.90
24686;DHT22;12804;51.176;4.452;2022-08-03T06:22:08;21.30;99.90
24686;DHT22;12804;51.176;4.452;2022-08-03T06:24:33;21.40;99.90
24686;DHT22;12804;51.176;4.452;2022-08-03T06:26:59;21.40;99.90
24686;DHT22;12804;51.176;4.452;2022-08-03T06:29:25;21.40;99.90
24686;DHT22;12804;51.176;4.452;2022-08-03T06:31:51;21.50;99.90
24686;DHT22;12804;51.176;4.452;2022-08-03T06:34:16;21.60;99.90
24686;DHT22;12804;51.176;4.452;2022-08-03T06:36:42;21.60;99.90
24686;DHT22;12804;51.176;4.452;2022-08-03T06:39:08;21.60;99.90
24686;DHT22;12804;51.176;4.452;2022-08-03T06:41:34;21.60;99.90
24686;DHT22;12804;51.176;4.452;2022-08-03T06:44:01;21.70;99.90
24686;DHT22;12804;51.176;4.452;2022-08-03T06:46:26;21.70;99.90
24686;DHT22;12804;51.176;4.452;2022-08-03T06:48:52;21.90;99.90
24686;DHT22;12804;51.176;4.452;2022-08-03T06:51:18;22.00;99.90
24686;DHT22;12804;51.176;4.452;2022-08-03T06:53:43;22.00;99.90
24686;DHT22;12804;51.176;4.452;2022-08-03T06:56:09;22.00;99.90
24686;DHT22;12804;51.176;4.452;2022-08-03T06:58:35;22.00;99.90
24686;DHT22;12804;51.176;4.452;2022-08-03T07:01:01;22.10;99.90
24686;DHT22;12804;51.176;4.452;2022-08-03T07:03:27;22.10;99.90
24686;DHT22;12804;51.176;4.452;2022-08-03T07:05:52;22.20;99.90
24686;DHT22;12804;51.176;4.452;2022-08-03T07:08:18;22.50;99.90
24686;DHT22;12804;51.176;4.452;2022-08-03T07:10:44;22.50;99.90
24686;DHT22;12804;51.176;4.452;2022-08-03T07:13:10;22.50;99.90
24686;DHT22;12804;51.176;4.452;2022-08-03T07:15:37;22.60;99.90
24686;DHT22;12804;51.176;4.452;2022-08-03T07:18:04;22.80;99.90
24686;DHT22;12804;51.176;4.452;2022-08-03T07:20:29;22.90;99.90
24686;DHT22;12804;51.176;4.452;2022-08-03T07:22:55;22.90;99.90
24686;DHT22;12804;51.176;4.452;2022-08-03T07:25:21;22.80;99.90
24686;DHT22;12804;51.176;4.452;2022-08-03T07:27:47;23.00;99.90
24686;DHT22;12804;51.176;4.452;2022-08-03T07:30:14;23.10;99.90
24686;DHT22;12804;51.176;4.452;2022-08-03T07:32:41;23.10;99.90
24686;DHT22;12804;51.176;4.452;2022-08-03T07:35:08;23.20;99.90
24686;DHT22;12804;51.176;4.452;2022-08-03T07:37:35;23.10;99.90
24686;DHT22;12804;51.176;4.452;2022-08-03T07:40:03;23.10;99.90
24686;DHT22;12804;51.176;4.452;2022-08-03T07:42:31;23.20;99.90
24686;DHT22;12804;51.176;4.452;2022-08-03T07:44:57;23.30;99.90
24686;DHT22;12804;51.176;4.452;2022-08-03T07:47:28;23.40;99.90
24686;DHT22;12804;51.176;4.452;2022-08-03T07:49:55;23.40;99.90
24686;DHT22;12804;51.176;4.452;2022-08-03T07:52:20;23.40;99.90
24686;DHT22;12804;51.176;4.452;2022-08-03T07:55:06;23.60;99.90
24686;DHT22;12804;51.176;4.452;2022-08-03T07:57:32;23.80;99.90
24686;DHT22;12804;51.176;4.452;2022-08-03T07:59:58;23.90;99.90
24686;DHT22;12804;51.176;4.452;2022-08-03T08:02:24;23.90;99.90
24686;DHT22;12804;51.176;4.452;2022-08-03T08:04:50;24.00;99.90
24686;DHT22;12804;51.176;4.452;2022-08-03T08:07:16;23.90;99.90
24686;DHT22;12804;51.176;4.452;2022-08-03T08:09:41;23.90;99.90
24686;DHT22;12804;51.176;4.452;2022-08-03T08:12:07;23.60;99.90
24686;DHT22;12804;51.176;4.452;2022-08-03T08:14:34;23.80;99.90
24686;DHT22;12804;51.176;4.452;2022-08-03T08:17:00;23.90;99.90
24686;DHT22;12804;51.176;4.452;2022-08-03T08:19:26;23.90;99.90
24686;DHT22;12804;51.176;4.452;2022-08-03T08:21:52;23.90;99.90
24686;DHT22;12804;51.176;4.452;2022-08-03T08:24:17;24.00;99.90
24686;DHT22;12804;51.176;4.452;2022-08-03T08:26:43;24.10;99.90
24686;DHT22;12804;51.176;4.452;2022-08-03T08:29:09;24.40;99.90
24686;DHT22;12804;51.176;4.452;2022-08-03T08:31:35;24.60;99.90
24686;DHT22;12804;51.176;4.452;2022-08-03T08:34:01;24.50;99.90
24686;DHT22;12804;51.176;4.452;2022-08-03T08:36:33;24.70;99.90
24686;DHT22;12804;51.176;4.452;2022-08-03T08:38:59;24.80;99.90
24686;DHT22;12804;51.176;4.452;2022-08-03T08:41:25;24.90;99.90
24686;DHT22;12804;51.176;4.452;2022-08-03T08:43:52;24.80;99.90
24686;DHT22;12804;51.176;4.452;2022-08-03T08:46:19;24.80;99.90
24686;DHT22;12804;51.176;4.452;2022-08-03T08:48:47;24.70;99.90
24686;DHT22;12804;51.176;4.452;2022-08-03T08:51:13;24.80;99.90
24686;DHT22;12804;51.176;4.452;2022-08-03T08:53:44;24.90;99.90
24686;DHT22;12804;51.176;4.452;2022-08-03T08:56:13;25.00;99.90
24686;DHT22;12804;51.176;4.452;2022-08-03T08:58:43;25.00;99.90
24686;DHT22;12804;51.176;4.452;2022-08-03T09:01:11;25.10;99.90
24686;DHT22;12804;51.176;4.452;2022-08-03T09:03:37;25.30;99.90
24686;DHT22;12804;51.176;4.452;2022-08-03T09:06:03;25.40;99.90
24686;DHT22;12804;51.176;4.452;2022-08-03T09:08:30;25.50;99.90
24686;DHT22;12804;51.176;4.452;2022-08-03T09:10:57;25.50;99.90
24686;DHT22;12804;51.176;4.452;2022-08-03T09:13:22;25.50;99.90
24686;DHT22;12804;51.176;4.452;2022-08-03T09:18:43;25.30;99.90
24686;DHT22;12804;51.176;4.452;2022-08-03T09:21:26;25.50;99.90
24686;DHT22;12804;51.176;4.452;2022-08-03T09:23:55;25.80;99.90
24686;DHT22;12804;51.176;4.452;2022-08-03T09:26:25;26.10;99.90
24686;DHT22;12804;51.176;4.452;2022-08-03T09:29:07;26.00;99.90
24686;DHT22;12804;51.176;4.452;2022-08-03T09:31:35;25.90;99.90
24686;DHT22;12804;51.176;4.452;2022-08-03T09:34:03;26.00;99.90
24686;DHT22;12804;51.176;4.452;2022-08-03T09:36:42;26.10;99.90
24686;DHT22;12804;51.176;4.452;2022-08-03T09:39:14;26.30;99.90
24686;DHT22;12804;51.176;4.452;2022-08-03T09:41:45;26.50;99.90
24686;DHT22;12804;51.176;4.452;2022-08-03T09:44:11;26.70;99.90
24686;DHT22;12804;51.176;4.452;2022-08-03T09:46:51;26.40;99.90
24686;DHT22;12804;51.176;4.452;2022-08-03T09:49:17;26.50;99.90
24686;DHT22;12804;51.176;4.452;2022-08-03T09:51:43;26.70;99.90
24686;DHT22;12804;51.176;4.452;2022-08-03T09:54:09;26.60;99.90
24686;DHT22;12804;51.176;4.452;2022-08-03T09:56:43;26.70;99.90
24686;DHT22;12804;51.176;4.452;2022-08-03T09:59:10;26.50;99.90
24686;DHT22;12804;51.176;4.452;2022-08-03T10:01:38;26.60;99.90
24686;DHT22;12804;51.176;4.452;2022-08-03T10:04:11;26.90;99.90
24686;DHT22;12804;51.176;4.452;2022-08-03T10:06:38;27.20;99.90
24686;DHT22;12804;51.176;4.452;2022-08-03T10:11:35;27.30;99.90
24686;DHT22;12804;51.176;4.452;2022-08-03T10:14:07;27.30;99.90
24686;DHT22;12804;51.176;4.452;2022-08-03T10:16:36;27.30;99.90
24686;DHT22;12804;51.176;4.452;2022-08-03T10:19:05;27.40;99.90
24686;DHT22;12804;51.176;4.452;2022-08-03T10:21:36;27.50;99.90
24686;DHT22;12804;51.176;4.452;2022-08-03T10:24:07;27.70;99.90
24686;DHT22;12804;51.176;4.452;2022-08-03T10:26:40;28.00;99.90
24686;DHT22;12804;51.176;4.452;2022-08-03T10:29:11;28.30;99.90
24686;DHT22;12804;51.176;4.452;2022-08-03T10:31:42;28.20;99.90
24686;DHT22;12804;51.176;4.452;2022-08-03T10:34:25;28.40;99.90
24686;DHT22;12804;51.176;4.452;2022-08-03T10:36:53;28.20;99.90
24686;DHT22;12804;51.176;4.452;2022-08-03T10:39:22;28.40;99.90
24686;DHT22;12804;51.176;4.452;2022-08-03T10:41:49;28.60;99.90
24686;DHT22;12804;51.176;4.452;2022-08-03T10:44:22;28.70;99.90
24686;DHT22;12804;51.176;4.452;2022-08-03T10:46:49;28.90;99.90
24686;DHT22;12804;51.176;4.452;2022-08-03T10:49:17;29.10;99.90
24686;DHT22;12804;51.176;4.452;2022-08-03T10:51:45;29.10;99.90
24686;DHT22;12804;51.176;4.452;2022-08-03T10:57:02;29.10;99.90
24686;DHT22;12804;51.176;4.452;2022-08-03T11:02:13;29.50;99.90
24686;DHT22;12804;51.176;4.452;2022-08-03T11:04:40;30.30;99.90
24686;DHT22;12804;51.176;4.452;2022-08-03T11:09:46;31.90;99.90
24686;DHT22;12804;51.176;4.452;2022-08-03T11:12:30;32.80;99.90
24686;DHT22;12804;51.176;4.452;2022-08-03T11:14:59;33.80;99.90
24686;DHT22;12804;51.176;4.452;2022-08-03T11:17:25;33.90;99.90
24686;DHT22;12804;51.176;4.452;2022-08-03T11:19:52;34.60;99.90
24686;DHT22;12804;51.176;4.452;2022-08-03T11:22:19;33.30;99.90
24686;DHT22;12804;51.176;4.452;2022-08-03T11:29:53;34.40;99.90
24686;DHT22;12804;51.176;4.452;2022-08-03T11:35:22;33.10;99.90
24686;DHT22;12804;51.176;4.452;2022-08-03T11:40:35;34.50;99.90
24686;DHT22;12804;51.176;4.452;2022-08-03T11:43:03;36.30;99.90
24686;DHT22;12804;51.176;4.452;2022-08-03T11:45:30;35.10;99.90
24686;DHT22;12804;51.176;4.452;2022-08-03T11:47:56;36.30;99.90
24686;DHT22;12804;51.176;4.452;2022-08-03T11:50:24;37.10;98.60
24686;DHT22;12804;51.176;4.452;2022-08-03T11:52:50;37.10;97.70
24686;DHT22;12804;51.176;4.452;2022-08-03T11:55:18;36.40;96.50
24686;DHT22;12804;51.176;4.452;2022-08-03T11:57:46;37.50;94.80
24686;DHT22;12804;51.176;4.452;2022-08-03T12:00:30;37.90;93.70
24686;DHT22;12804;51.176;4.452;2022-08-03T12:03:05;37.20;93.60
24686;DHT22;12804;51.176;4.452;2022-08-03T12:08:00;37.20;91.10
24686;DHT22;12804;51.176;4.452;2022-08-03T12:10:26;36.40;92.30
24686;DHT22;12804;51.176;4.452;2022-08-03T12:12:59;36.70;91.80
24686;DHT22;12804;51.176;4.452;2022-08-03T12:15:31;38.10;90.40
24686;DHT22;12804;51.176;4.452;2022-08-03T12:17:58;39.80;86.40
24686;DHT22;12804;51.176;4.452;2022-08-03T12:20:27;40.50;80.10
24686;DHT22;12804;51.176;4.452;2022-08-03T12:22:54;39.40;80.90
24686;DHT22;12804;51.176;4.452;2022-08-03T12:25:22;36.30;88.00
24686;DHT22;12804;51.176;4.452;2022-08-03T12:27:49;35.90;90.30
24686;DHT22;12804;51.176;4.452;2022-08-03T12:30:15;37.00;87.50
24686;DHT22;12804;51.176;4.452;2022-08-03T12:32:42;38.40;82.90
24686;DHT22;12804;51.176;4.452;2022-08-03T12:35:08;36.90;86.20
24686;DHT22;12804;51.176;4.452;2022-08-03T12:37:35;36.60;86.70
24686;DHT22;12804;51.176;4.452;2022-08-03T12:40:03;37.80;85.10
24686;DHT22;12804;51.176;4.452;2022-08-03T12:42:35;36.80;84.70
24686;DHT22;12804;51.176;4.452;2022-08-03T12:45:22;34.60;91.00
24686;DHT22;12804;51.176;4.452;2022-08-03T12:48:00;34.10;91.90
24686;DHT22;12804;51.176;4.452;2022-08-03T12:50:31;35.30;90.80
24686;DHT22;12804;51.176;4.452;2022-08-03T12:52:58;37.60;88.00
24686;DHT22;12804;51.176;4.452;2022-08-03T12:55:25;39.70;79.80
24686;DHT22;12804;51.176;4.452;2022-08-03T12:58:01;39.50;77.00
24686;DHT22;12804;51.176;4.452;2022-08-03T13:00:27;38.00;80.40
24686;DHT22;12804;51.176;4.452;2022-08-03T13:03:05;38.70;78.30
24686;DHT22;12804;51.176;4.452;2022-08-03T13:05:44;38.60;76.10
24686;DHT22;12804;51.176;4.452;2022-08-03T13:08:18;36.00;82.30
24686;DHT22;12804;51.176;4.452;2022-08-03T13:10:44;35.30;85.00
24686;DHT22;12804;51.176;4.452;2022-08-03T13:13:10;34.80;86.80
24686;DHT22;12804;51.176;4.452;2022-08-03T13:15:36;34.80;87.80
24686;DHT22;12804;51.176;4.452;2022-08-03T13:18:02;34.70;88.20
24686;DHT22;12804;51.176;4.452;2022-08-03T13:20:28;34.80;87.70
24686;DHT22;12804;51.176;4.452;2022-08-03T13:22:54;34.50;90.20
24686;DHT22;12804;51.176;4.452;2022-08-03T13:25:21;35.10;90.00
24686;DHT22;12804;51.176;4.452;2022-08-03T13:27:47;37.20;83.90
24686;DHT22;12804;51.176;4.452;2022-08-03T13:30:14;39.60;77.00
24686;DHT22;12804;51.176;4.452;2022-08-03T13:32:40;41.10;71.40
24686;DHT22;12804;51.176;4.452;2022-08-03T13:35:07;42.00;66.60
24686;DHT22;12804;51.176;4.452;2022-08-03T13:37:33;42.50;65.10
24686;DHT22;12804;51.176;4.452;2022-08-03T13:40:00;42.80;62.70
24686;DHT22;12804;51.176;4.452;2022-08-03T13:42:27;41.80;63.10
24686;DHT22;12804;51.176;4.452;2022-08-03T13:44:53;41.70;62.20
24686;DHT22;12804;51.176;4.452;2022-08-03T13:47:19;42.80;60.70
24686;DHT22;12804;51.176;4.452;2022-08-03T13:49:45;43.80;58.10
24686;DHT22;12804;51.176;4.452;2022-08-03T13:52:11;41.00;61.30
24686;DHT22;12804;51.176;4.452;2022-08-03T13:54:37;38.80;65.70
24686;DHT22;12804;51.176;4.452;2022-08-03T13:57:02;39.40;65.10
24686;DHT22;12804;51.176;4.452;2022-08-03T13:59:28;40.10;63.20
24686;DHT22;12804;51.176;4.452;2022-08-03T14:01:54;40.80;61.30
24686;DHT22;12804;51.176;4.452;2022-08-03T14:04:20;38.00;67.40
24686;DHT22;12804;51.176;4.452;2022-08-03T14:06:46;38.30;67.40
24686;DHT22;12804;51.176;4.452;2022-08-03T14:09:12;38.50;66.20
24686;DHT22;12804;51.176;4.452;2022-08-03T14:11:39;38.70;66.80
24686;DHT22;12804;51.176;4.452;2022-08-03T14:14:05;39.00;67.60
24686;DHT22;12804;51.176;4.452;2022-08-03T14:16:31;39.70;62.70
24686;DHT22;12804;51.176;4.452;2022-08-03T14:18:57;42.10;59.60
24686;DHT22;12804;51.176;4.452;2022-08-03T14:21:22;43.20;56.80
24686;DHT22;12804;51.176;4.452;2022-08-03T14:23:48;44.40;55.00
24686;DHT22;12804;51.176;4.452;2022-08-03T14:26:14;41.20;57.20
24686;DHT22;12804;51.176;4.452;2022-08-03T14:28:42;40.10;59.50
24686;DHT22;12804;51.176;4.452;2022-08-03T14:31:08;40.40;59.40
24686;DHT22;12804;51.176;4.452;2022-08-03T14:33:34;40.60;59.20
24686;DHT22;12804;51.176;4.452;2022-08-03T14:35:59;40.00;60.40
24686;DHT22;12804;51.176;4.452;2022-08-03T14:38:25;40.40;58.70
24686;DHT22;12804;51.176;4.452;2022-08-03T14:40:51;42.10;56.90
24686;DHT22;12804;51.176;4.452;2022-08-03T14:43:17;43.60;54.30
24686;DHT22;12804;51.176;4.452;2022-08-03T14:45:44;44.30;53.60
24686;DHT22;12804;51.176;4.452;2022-08-03T14:48:10;44.40;52.60
24686;DHT22;12804;51.176;4.452;2022-08-03T14:50:37;44.00;52.30
24686;DHT22;12804;51.176;4.452;2022-08-03T14:53:03;44.50;52.20
24686;DHT22;12804;51.176;4.452;2022-08-03T14:55:28;44.20;51.50
24686;DHT22;12804;51.176;4.452;2022-08-03T14:57:54;42.90;52.40
24686;DHT22;12804;51.176;4.452;2022-08-03T15:00:20;42.90;53.50
24686;DHT22;12804;51.176;4.452;2022-08-03T15:02:46;42.00;53.30
24686;DHT22;12804;51.176;4.452;2022-08-03T15:05:11;40.90;54.70
24686;DHT22;12804;51.176;4.452;2022-08-03T15:07:39;42.80;52.80
24686;DHT22;12804;51.176;4.452;2022-08-03T15:10:05;43.30;52.50
24686;DHT22;12804;51.176;4.452;2022-08-03T15:12:31;44.20;50.20
24686;DHT22;12804;51.176;4.452;2022-08-03T15:14:57;42.10;52.70
24686;DHT22;12804;51.176;4.452;2022-08-03T15:17:23;40.50;54.30
24686;DHT22;12804;51.176;4.452;2022-08-03T15:19:49;39.80;55.70
24686;DHT22;12804;51.176;4.452;2022-08-03T15:22:14;39.50;56.30
24686;DHT22;12804;51.176;4.452;2022-08-03T15:24:42;40.30;55.20
24686;DHT22;12804;51.176;4.452;2022-08-03T15:27:08;39.40;56.00
24686;DHT22;12804;51.176;4.452;2022-08-03T15:29:33;39.70;56.20
24686;DHT22;12804;51.176;4.452;2022-08-03T15:31:59;40.40;56.00
24686;DHT22;12804;51.176;4.452;2022-08-03T15:34:25;41.30;54.70
24686;DHT22;12804;51.176;4.452;2022-08-03T15:36:51;40.30;55.60
24686;DHT22;12804;51.176;4.452;2022-08-03T15:39:16;42.00;53.60
24686;DHT22;12804;51.176;4.452;2022-08-03T15:41:42;43.60;52.00
24686;DHT22;12804;51.176;4.452;2022-08-03T15:44:09;44.10;49.50
24686;DHT22;12804;51.176;4.452;2022-08-03T15:46:35;45.70;48.40
24686;DHT22;12804;51.176;4.452;2022-08-03T15:49:01;46.90;46.50
24686;DHT22;12804;51.176;4.452;2022-08-03T15:51:26;47.40;45.00
24686;DHT22;12804;51.176;4.452;2022-08-03T15:53:52;46.20;44.40
24686;DHT22;12804;51.176;4.452;2022-08-03T15:56:18;44.50;46.60
24686;DHT22;12804;51.176;4.452;2022-08-03T15:58:44;42.50;48.80
24686;DHT22;12804;51.176;4.452;2022-08-03T16:01:10;43.40;48.40
24686;DHT22;12804;51.176;4.452;2022-08-03T16:03:36;43.30;47.80
24686;DHT22;12804;51.176;4.452;2022-08-03T16:06:06;43.10;48.10
24686;DHT22;12804;51.176;4.452;2022-08-03T16:08:32;43.90;47.90
24686;DHT22;12804;51.176;4.452;2022-08-03T16:10:59;44.80;45.90